Time;durP1;ratioP1;P1;durP2;ratioP2;P2;SDS_P1;SDS_P2;PMS_P1;PMS_P2;Temp;Humidity;BMP_temperature;BMP_pressure;BME280_temperature;BME280_humidity;BME280_pressure;Samples;Min_cycle;Max_cycle;Signal;HPM_P1;HPM_P2
2023/09/10 00:01:05;;;;;;;7.95;4.82;;;22.80;99.90;;;;;;5023490;28;45121;-57
2023/09/10 00:03:32;;;;;;;8.20;4.22;;;22.80;99.90;;;;;;5018032;28;45338;-57
2023/09/10 00:05:59;;;;;;;8.10;5.15;;;22.80;99.90;;;;;;5022666;28;45227;-57
2023/09/10 00:08:26;;;;;;;11.13;5.13;;;22.80;99.90;;;;;;5020906;28;45307;-57
2023/09/10 00:10:53;;;;;;;10.00;5.70;;;22.80;99.90;;;;;;5010954;28;45223;-57
2023/09/10 00:13:21;;;;;;;9.60;4.45;;;22.80;99.90;;;;;;5021211;28;44750;-57
2023/09/10 00:15:48;;;;;;;10.35;6.07;;;22.80;99.90;;;;;;5018262;28;47281;-57
2023/09/10 00:18:15;;;;;;;10.82;5.43;;;22.80;99.90;;;;;;5020163;28;46008;-57
2023/09/10 00:20:42;;;;;;;11.35;5.68;;;22.80;99.90;;;;;;5019940;28;45106;-57
2023/09/10 00:23:09;;;;;;;8.82;5.60;;;22.80;99.90;;;;;;5024404;28;45092;-57
2023/09/10 00:25:35;;;;;;;7.47;5.13;;;22.80;99.90;;;;;;5023053;28;46249;-57
2023/09/10 00:28:03;;;;;;;6.78;4.63;;;22.80;99.90;;;;;;5022200;28;45259;-57
2023/09/10 00:30:31;;;;;;;9.20;5.35;;;22.80;99.90;;;;;;5013626;28;45255;-57
2023/09/10 00:32:58;;;;;;;11.10;6.53;;;22.80;99.90;;;;;;5015006;28;45346;-57
2023/09/10 00:35:25;;;;;;;14.23;7.70;;;22.80;99.90;;;;;;5014283;28;47148;-57
2023/09/10 00:37:52;;;;;;;10.50;7.40;;;22.80;99.90;;;;;;5010529;28;45153;-57
2023/09/10 00:40:18;;;;;;;13.82;8.20;;;22.70;99.90;;;;;;5018769;28;44932;-57
2023/09/10 00:42:44;;;;;;;13.63;8.30;;;22.70;99.90;;;;;;5017511;28;44690;-57
2023/09/10 00:45:13;;;;;;;12.88;8.18;;;22.60;99.90;;;;;;5022786;28;45202;-57
2023/09/10 00:47:44;;;;;;;15.27;9.45;;;22.70;99.90;;;;;;5017743;28;44659;-56
2023/09/10 00:50:11;;;;;;;12.00;8.02;;;22.60;99.90;;;;;;5026507;28;45065;-57
2023/09/10 00:52:41;;;;;;;12.10;7.75;;;22.60;99.90;;;;;;5015151;28;44864;-57
2023/09/10 00:55:09;;;;;;;7.93;5.47;;;22.70;99.90;;;;;;5015041;28;45252;-57
2023/09/10 00:57:36;;;;;;;9.82;6.75;;;22.70;99.90;;;;;;5024349;28;45081;-57
2023/09/10 01:00:08;;;;;;;7.55;5.85;;;22.70;99.90;;;;;;5012399;28;45154;-57
2023/09/10 01:02:35;;;;;;;8.45;5.85;;;22.70;99.90;;;;;;5023252;28;45360;-57
2023/09/10 01:05:04;;;;;;;9.13;6.78;;;22.70;99.90;;;;;;5021038;28;46388;-57
2023/09/10 01:07:31;;;;;;;12.43;6.18;;;22.70;99.90;;;;;;5025135;28;45514;-57
2023/09/10 01:09:58;;;;;;;11.20;6.03;;;22.80;99.90;;;;;;5021886;28;45123;-57
2023/09/10 01:12:32;;;;;;;8.93;5.85;;;22.70;99.90;;;;;;5025352;28;45053;-57
2023/09/10 01:15:13;;;;;;;8.45;5.53;;;22.80;99.90;;;;;;5024373;28;45088;-57
2023/09/10 01:17:49;;;;;;;10.05;5.28;;;22.80;99.90;;;;;;5019988;28;45193;-57
2023/09/10 01:20:48;;;;;;;9.45;6.88;;;22.80;99.90;;;;;;5023200;28;45179;-57
2023/09/10 01:23:20;;;;;;;9.75;6.28;;;22.80;99.90;;;;;;5025252;28;45068;-57
2023/09/10 01:25:49;;;;;;;11.20;6.07;;;22.70;99.90;;;;;;5018627;28;47977;-57
2023/09/10 01:28:16;;;;;;;9.60;6.30;;;22.80;99.90;;;;;;5015531;28;45183;-57
2023/09/10 01:30:42;;;;;;;10.00;6.40;;;22.70;99.90;;;;;;5025248;28;45119;-57
2023/09/10 01:33:17;;;;;;;9.68;5.75;;;22.80;99.90;;;;;;5020208;28;45180;-56
2023/09/10 01:35:52;;;;;;;9.57;6.00;;;22.80;99.90;;;;;;5023126;28;45082;-57
2023/09/10 01:38:26;;;;;;;6.93;5.35;;;22.80;99.90;;;;;;5022224;28;45412;-57
2023/09/10 01:40:58;;;;;;;10.73;5.90;;;22.80;99.90;;;;;;5017955;28;45224;-57
2023/09/10 01:43:25;;;;;;;7.47;5.47;;;22.80;99.90;;;;;;5020509;28;45347;-57
2023/09/10 01:45:52;;;;;;;9.88;6.20;;;22.80;99.90;;;;;;5023511;28;47127;-57
2023/09/10 01:48:19;;;;;;;8.63;5.47;;;22.80;99.90;;;;;;5022177;28;45193;-57
2023/09/10 01:50:46;;;;;;;8.68;5.65;;;22.80;99.90;;;;;;5013975;28;45081;-57
2023/09/10 01:53:16;;;;;;;8.10;5.75;;;22.80;99.90;;;;;;5023294;28;45139;-57
2023/09/10 01:55:43;;;;;;;10.65;5.75;;;22.80;99.90;;;;;;5013662;28;47272;-57
2023/09/10 01:58:13;;;;;;;9.10;5.65;;;22.80;99.90;;;;;;5016308;28;45080;-57
2023/09/10 02:00:39;;;;;;;8.63;5.93;;;22.80;99.90;;;;;;5022455;28;44719;-57
2023/09/10 02:03:06;;;;;;;8.20;5.97;;;22.80;99.90;;;;;;5022067;28;45128;-56
2023/09/10 02:05:33;;;;;;;7.93;5.70;;;22.80;99.90;;;;;;5023724;28;45337;-57
2023/09/10 02:08:00;;;;;;;8.25;5.85;;;22.80;99.90;;;;;;5022438;28;45073;-57
2023/09/10 02:10:32;;;;;;;9.73;5.78;;;22.70;99.90;;;;;;5023335;28;45182;-57
2023/09/10 02:12:59;;;;;;;8.73;5.75;;;22.70;99.90;;;;;;5016940;28;45472;-56
2023/09/10 02:15:27;;;;;;;8.98;5.50;;;22.80;99.90;;;;;;5020616;28;47012;-57
2023/09/10 02:17:54;;;;;;;9.35;5.95;;;22.80;99.90;;;;;;5022098;28;45222;-57
2023/09/10 02:20:21;;;;;;;7.97;5.03;;;22.80;99.90;;;;;;5022518;28;45181;-57
2023/09/10 02:22:48;;;;;;;11.27;5.65;;;22.70;99.90;;;;;;5023874;28;45172;-57
2023/09/10 02:25:16;;;;;;;9.07;6.03;;;22.70;99.90;;;;;;5022927;28;45354;-57
2023/09/10 02:27:42;;;;;;;11.98;7.03;;;22.80;99.90;;;;;;5022877;28;45196;-57
2023/09/10 02:30:10;;;;;;;13.02;5.97;;;22.80;99.90;;;;;;5021504;28;45223;-57
2023/09/10 02:32:38;;;;;;;8.95;6.03;;;22.80;99.90;;;;;;5020618;28;45400;-57
2023/09/10 02:35:06;;;;;;;11.00;6.22;;;22.80;99.90;;;;;;5013864;28;45429;-57
2023/09/10 02:37:33;;;;;;;8.82;5.80;;;22.70;99.90;;;;;;5024054;28;45290;-57
2023/09/10 02:39:59;;;;;;;8.57;6.10;;;22.80;99.90;;;;;;5024984;28;45085;-57
2023/09/10 02:42:26;;;;;;;8.82;5.70;;;22.80;99.90;;;;;;5021513;28;45096;-57
2023/09/10 02:44:53;;;;;;;9.68;6.78;;;22.70;99.90;;;;;;5020574;28;48512;-57
2023/09/10 02:47:20;;;;;;;9.98;6.18;;;22.70;99.90;;;;;;5013601;28;45108;-57
2023/09/10 02:49:48;;;;;;;15.25;6.47;;;22.80;99.90;;;;;;5013047;28;45273;-57
2023/09/10 02:52:15;;;;;;;10.00;5.82;;;22.70;99.90;;;;;;5014846;28;45153;-57
2023/09/10 02:54:42;;;;;;;8.20;5.57;;;22.70;99.90;;;;;;5009590;28;45272;-57
2023/09/10 02:57:09;;;;;;;9.50;5.30;;;22.70;99.90;;;;;;5022936;28;45140;-57
2023/09/10 02:59:36;;;;;;;8.00;5.38;;;22.80;99.90;;;;;;5022751;28;45235;-57
2023/09/10 03:02:02;;;;;;;9.05;5.78;;;22.80;99.90;;;;;;5021330;28;45191;-57
2023/09/10 03:04:29;;;;;;;9.63;5.70;;;22.70;99.90;;;;;;5013824;28;45106;-57
2023/09/10 03:06:57;;;;;;;9.55;6.05;;;22.80;99.90;;;;;;5024075;28;45137;-57
2023/09/10 03:09:24;;;;;;;7.80;5.50;;;22.70;99.90;;;;;;5028015;28;45139;-57
2023/09/10 03:11:51;;;;;;;11.70;5.32;;;22.80;99.90;;;;;;5017154;28;45311;-57
2023/09/10 03:14:18;;;;;;;10.35;5.47;;;22.80;99.90;;;;;;5023423;28;46939;-57
2023/09/10 03:16:45;;;;;;;13.02;5.68;;;22.70;99.90;;;;;;5021193;28;45139;-57
2023/09/10 03:19:11;;;;;;;10.43;6.25;;;22.70;99.90;;;;;;5021590;28;45152;-57
2023/09/10 03:21:38;;;;;;;8.18;4.90;;;22.80;99.90;;;;;;5022736;28;44706;-57
2023/09/10 03:24:07;;;;;;;13.43;6.10;;;22.80;99.90;;;;;;5022624;28;45294;-57
2023/09/10 03:26:34;;;;;;;10.32;6.38;;;22.70;99.90;;;;;;5021327;28;45096;-57
2023/09/10 03:29:01;;;;;;;12.02;6.05;;;22.70;99.90;;;;;;5015888;28;44617;-56
2023/09/10 03:31:29;;;;;;;8.23;5.47;;;22.70;99.90;;;;;;5018068;28;45112;-56
2023/09/10 03:33:55;;;;;;;8.40;5.22;;;22.70;99.90;;;;;;5023469;28;45283;-56
2023/09/10 03:36:22;;;;;;;13.23;5.88;;;22.70;99.90;;;;;;5020802;28;45079;-56
2023/09/10 03:38:49;;;;;;;10.60;5.45;;;22.70;99.90;;;;;;5023408;28;45079;-56
2023/09/10 03:41:17;;;;;;;8.73;5.55;;;22.80;99.90;;;;;;5021870;28;45240;-56
2023/09/10 03:43:44;;;;;;;7.80;5.60;;;22.80;99.90;;;;;;5022536;28;46024;-56
2023/09/10 03:46:11;;;;;;;9.93;5.10;;;22.70;99.90;;;;;;5017765;28;45296;-56
2023/09/10 03:48:37;;;;;;;10.35;5.95;;;22.70;99.90;;;;;;5022813;28;45244;-56
2023/09/10 03:51:04;;;;;;;9.18;5.78;;;22.70;99.90;;;;;;5023176;28;44994;-56
2023/09/10 03:53:31;;;;;;;9.65;5.93;;;22.80;99.90;;;;;;5021011;28;45172;-56
2023/09/10 03:55:58;;;;;;;10.10;5.90;;;22.80;99.90;;;;;;5014367;28;45208;-56
2023/09/10 03:58:26;;;;;;;8.45;5.40;;;22.70;99.90;;;;;;5026381;28;45123;-56
2023/09/10 04:00:53;;;;;;;8.95;5.82;;;22.80;99.90;;;;;;5018069;28;45128;-56
2023/09/10 04:03:20;;;;;;;8.95;5.80;;;22.70;99.90;;;;;;5023083;28;45123;-56
2023/09/10 04:05:47;;;;;;;8.85;5.45;;;22.80;99.90;;;;;;5017750;28;45076;-56
2023/09/10 04:08:14;;;;;;;10.52;6.22;;;22.70;99.90;;;;;;5027089;28;45312;-56
2023/09/10 04:10:41;;;;;;;11.10;6.25;;;22.70;99.90;;;;;;5023119;28;45419;-57
2023/09/10 04:13:08;;;;;;;8.82;5.53;;;22.80;99.90;;;;;;5014267;28;46024;-57
2023/09/10 04:15:36;;;;;;;8.50;5.78;;;22.80;99.90;;;;;;5023976;28;45258;-57
2023/09/10 04:18:05;;;;;;;6.38;5.65;;;22.70;99.90;;;;;;5022482;28;45168;-57
2023/09/10 04:20:32;;;;;;;8.57;6.03;;;22.70;99.90;;;;;;5020687;28;45267;-56
2023/09/10 04:22:58;;;;;;;8.82;5.63;;;22.70;99.90;;;;;;5024064;28;46406;-57
2023/09/10 04:25:25;;;;;;;9.48;5.80;;;22.70;99.90;;;;;;5025331;28;45118;-57
2023/09/10 04:27:52;;;;;;;10.10;5.70;;;22.70;99.90;;;;;;5021740;28;45136;-57
2023/09/10 04:30:19;;;;;;;8.95;6.50;;;22.70;99.90;;;;;;5026537;28;45129;-57
2023/09/10 04:32:47;;;;;;;11.07;7.13;;;22.70;99.90;;;;;;5022692;28;45198;-57
2023/09/10 04:35:14;;;;;;;8.60;5.55;;;22.70;99.90;;;;;;5023399;28;44716;-57
2023/09/10 04:37:40;;;;;;;8.48;5.82;;;22.70;99.90;;;;;;5026666;28;45084;-57
2023/09/10 04:40:08;;;;;;;9.10;4.80;;;22.70;99.90;;;;;;5023681;28;45208;-57
2023/09/10 04:42:35;;;;;;;9.80;6.13;;;22.70;99.90;;;;;;5021498;28;47049;-57
2023/09/10 04:45:03;;;;;;;8.93;5.40;;;22.70;99.90;;;;;;5023050;28;45174;-57
2023/09/10 04:47:30;;;;;;;16.10;7.32;;;22.70;99.90;;;;;;5021786;28;45320;-57
2023/09/10 04:49:58;;;;;;;10.07;5.80;;;22.60;99.90;;;;;;5023636;28;45032;-57
2023/09/10 04:52:25;;;;;;;10.63;6.32;;;22.60;99.90;;;;;;5016908;28;47316;-57
2023/09/10 04:54:52;;;;;;;12.95;5.85;;;22.60;99.90;;;;;;5022758;28;45178;-57
2023/09/10 04:57:19;;;;;;;9.70;6.35;;;22.60;99.90;;;;;;5021517;28;44700;-57
2023/09/10 04:59:46;;;;;;;11.38;6.90;;;22.60;99.90;;;;;;5026104;28;45059;-57
2023/09/10 05:02:13;;;;;;;9.55;5.90;;;22.60;99.90;;;;;;5021478;28;47619;-57
2023/09/10 05:04:40;;;;;;;8.98;5.90;;;22.60;99.90;;;;;;5025239;28;45619;-57
2023/09/10 05:07:08;;;;;;;9.57;5.57;;;22.70;99.90;;;;;;5025015;28;45166;-57
2023/09/10 05:09:35;;;;;;;9.73;5.63;;;22.70;99.90;;;;;;5023357;28;45354;-57
2023/09/10 05:12:02;;;;;;;7.50;5.47;;;22.70;99.90;;;;;;5022583;28;46252;-57
2023/09/10 05:14:28;;;;;;;8.32;5.75;;;22.70;99.90;;;;;;5023381;28;45262;-57
2023/09/10 05:16:55;;;;;;;7.90;5.55;;;22.70;99.90;;;;;;5024739;28;45172;-57
2023/09/10 05:19:24;;;;;;;12.10;6.03;;;22.60;99.90;;;;;;5020991;28;45278;-57
2023/09/10 05:21:51;;;;;;;8.80;5.35;;;22.70;99.90;;;;;;5024210;28;45437;-57
2023/09/10 05:24:19;;;;;;;8.77;5.72;;;22.70;99.90;;;;;;5024433;28;45151;-57
2023/09/10 05:26:46;;;;;;;9.55;5.43;;;22.70;99.90;;;;;;5022837;28;45144;-57
2023/09/10 05:29:12;;;;;;;9.50;5.55;;;22.70;99.90;;;;;;5025726;28;45068;-57
2023/09/10 05:31:39;;;;;;;9.68;6.13;;;22.70;99.90;;;;;;5023284;28;46255;-57
2023/09/10 05:34:06;;;;;;;7.40;4.97;;;22.70;99.90;;;;;;5023222;28;45439;-57
2023/09/10 05:36:34;;;;;;;6.35;4.93;;;22.70;99.90;;;;;;5023210;28;44588;-57
2023/09/10 05:39:01;;;;;;;8.75;5.22;;;22.70;99.90;;;;;;5025484;28;45197;-57
2023/09/10 05:41:29;;;;;;;7.88;4.97;;;22.70;99.90;;;;;;5022162;28;45011;-57
2023/09/10 05:43:56;;;;;;;11.07;5.60;;;22.70;99.90;;;;;;5010444;28;44629;-57
2023/09/10 05:46:22;;;;;;;7.72;5.35;;;22.70;99.90;;;;;;5016895;28;45170;-57
2023/09/10 05:48:49;;;;;;;8.07;5.18;;;22.70;99.90;;;;;;5021900;28;45368;-57
2023/09/10 05:51:16;;;;;;;10.18;5.95;;;22.70;99.90;;;;;;5014767;28;48182;-57
2023/09/10 05:53:44;;;;;;;7.72;5.28;;;22.70;99.90;;;;;;5019523;28;45446;-57
2023/09/10 05:56:11;;;;;;;10.02;5.70;;;22.70;99.90;;;;;;5013137;28;45463;-57
2023/09/10 05:58:39;;;;;;;8.07;5.53;;;22.70;99.90;;;;;;5019344;28;45349;-57
2023/09/10 06:01:06;;;;;;;8.13;5.75;;;22.70;99.90;;;;;;5024140;28;45780;-57
2023/09/10 06:03:32;;;;;;;8.70;5.55;;;22.70;99.90;;;;;;5022521;28;45233;-57
2023/09/10 06:06:01;;;;;;;12.02;5.55;;;22.70;99.90;;;;;;5024424;28;44627;-57
2023/09/10 06:08:29;;;;;;;11.00;5.32;;;22.70;99.90;;;;;;5022281;28;45311;-57
2023/09/10 06:10:56;;;;;;;10.05;5.97;;;22.70;99.90;;;;;;5014692;28;46369;-57
2023/09/10 06:13:22;;;;;;;12.25;6.97;;;22.70;99.90;;;;;;5021538;28;45076;-57
2023/09/10 06:15:51;;;;;;;10.02;6.15;;;22.70;99.90;;;;;;5017217;28;45190;-57
2023/09/10 06:18:18;;;;;;;13.38;6.07;;;22.70;99.90;;;;;;5020774;28;45171;-57
2023/09/10 06:20:44;;;;;;;10.75;6.78;;;22.70;99.90;;;;;;5021789;28;47348;-57
2023/09/10 06:23:11;;;;;;;13.93;5.85;;;22.70;99.90;;;;;;5020021;28;45109;-57
2023/09/10 06:25:38;;;;;;;10.48;5.95;;;22.60;99.90;;;;;;5013532;28;45188;-57
2023/09/10 06:28:05;;;;;;;7.72;5.55;;;22.70;99.90;;;;;;5019926;28;45310;-57
2023/09/10 06:30:32;;;;;;;13.25;6.75;;;22.70;99.90;;;;;;5006350;28;45420;-57
2023/09/10 06:33:00;;;;;;;6.93;5.35;;;22.70;99.90;;;;;;5021605;28;45089;-57
2023/09/10 06:35:27;;;;;;;8.82;6.15;;;22.70;99.90;;;;;;5021516;28;45298;-57
2023/09/10 06:37:54;;;;;;;8.20;5.25;;;22.70;99.90;;;;;;5023905;28;45285;-57
2023/09/10 06:40:21;;;;;;;17.25;6.63;;;22.70;99.90;;;;;;5022079;28;46217;-57
2023/09/10 06:42:48;;;;;;;13.80;6.38;;;22.70;99.90;;;;;;5024211;28;45203;-57
2023/09/10 06:45:14;;;;;;;13.23;7.50;;;22.60;99.90;;;;;;5019001;28;45217;-57
2023/09/10 06:47:41;;;;;;;7.53;5.15;;;22.60;99.90;;;;;;5017391;28;45203;-57
2023/09/10 06:50:10;;;;;;;9.30;5.55;;;22.60;99.90;;;;;;5022620;28;46992;-57
2023/09/10 06:52:37;;;;;;;10.20;6.47;;;22.60;99.90;;;;;;5018580;28;45039;-57
2023/09/10 06:55:04;;;;;;;7.25;5.20;;;22.50;99.90;;;;;;5022825;28;44616;-57
2023/09/10 06:57:31;;;;;;;5.88;4.75;;;22.60;99.90;;;;;;5020731;28;45368;-56
2023/09/10 06:59:58;;;;;;;10.00;5.63;;;22.70;99.90;;;;;;5024003;28;48648;-56
2023/09/10 07:02:25;;;;;;;6.80;4.45;;;22.70;99.90;;;;;;5019471;28;45223;-56
2023/09/10 07:04:52;;;;;;;7.55;4.97;;;22.80;99.90;;;;;;5022627;28;44662;-56
2023/09/10 07:07:20;;;;;;;11.35;5.50;;;22.80;99.90;;;;;;5023245;28;45194;-56
2023/09/10 07:09:47;;;;;;;7.70;4.93;;;22.80;99.90;;;;;;5019734;28;45151;-57
2023/09/10 07:12:14;;;;;;;8.48;4.30;;;22.80;99.90;;;;;;5023797;28;45140;-56
2023/09/10 07:14:42;;;;;;;7.18;4.70;;;22.90;99.90;;;;;;5020865;28;45220;-56
2023/09/10 07:17:09;;;;;;;10.15;5.40;;;22.90;99.90;;;;;;5008994;28;45188;-56
2023/09/10 07:19:36;;;;;;;6.93;4.45;;;22.90;99.90;;;;;;5023448;28;46465;-56
2023/09/10 07:22:03;;;;;;;9.98;4.50;;;22.80;99.90;;;;;;5021814;28;46000;-56
2023/09/10 07:24:31;;;;;;;6.72;4.22;;;22.90;99.90;;;;;;5021800;28;45190;-56
2023/09/10 07:26:58;;;;;;;9.75;4.82;;;22.90;99.90;;;;;;5014166;28;45172;-56
2023/09/10 07:29:25;;;;;;;4.88;4.10;;;22.90;99.90;;;;;;5019526;28;47365;-56
2023/09/10 07:31:52;;;;;;;5.63;4.35;;;22.90;99.90;;;;;;5014917;28;45462;-56
2023/09/10 07:34:20;;;;;;;6.53;4.82;;;22.90;99.90;;;;;;5014968;28;45230;-56
2023/09/10 07:36:47;;;;;;;7.53;4.57;;;22.90;99.90;;;;;;5013471;28;45050;-56
2023/09/10 07:39:14;;;;;;;5.75;3.80;;;22.80;99.90;;;;;;5019061;28;45165;-56
2023/09/10 07:41:42;;;;;;;5.03;3.90;;;22.80;99.90;;;;;;5012175;28;45029;-56
2023/09/10 07:44:09;;;;;;;7.25;4.65;;;22.80;99.90;;;;;;5016443;28;45343;-56
2023/09/10 07:46:36;;;;;;;6.65;4.28;;;22.80;99.90;;;;;;5014613;28;45147;-56
2023/09/10 07:49:02;;;;;;;4.88;3.67;;;22.90;99.90;;;;;;5011240;28;45321;-56
2023/09/10 07:51:29;;;;;;;7.10;4.70;;;22.90;99.90;;;;;;5012578;28;44675;-56
2023/09/10 07:53:56;;;;;;;4.80;4.00;;;22.90;99.90;;;;;;5017010;28;45302;-56
2023/09/10 07:56:23;;;;;;;5.95;4.28;;;22.90;99.90;;;;;;5014518;28;45258;-56
2023/09/10 07:58:51;;;;;;;9.73;4.28;;;22.80;99.90;;;;;;5015484;28;45314;-56
2023/09/10 08:01:18;;;;;;;5.25;3.72;;;22.90;99.90;;;;;;5012225;28;45056;-57
2023/09/10 08:03:45;;;;;;;5.68;4.13;;;22.80;99.90;;;;;;5011850;28;45095;-57
2023/09/10 08:06:11;;;;;;;5.63;3.60;;;22.90;99.90;;;;;;5015221;28;45230;-57
2023/09/10 08:08:39;;;;;;;6.75;4.05;;;22.80;99.90;;;;;;5016110;28;45270;-56
2023/09/10 08:11:05;;;;;;;6.38;4.38;;;22.90;99.90;;;;;;5015137;28;45184;-56
2023/09/10 08:13:32;;;;;;;5.28;3.80;;;22.90;99.90;;;;;;5008861;28;45159;-56
2023/09/10 08:16:00;;;;;;;4.07;3.47;;;22.90;99.90;;;;;;5017238;28;45284;-56
2023/09/10 08:18:27;;;;;;;6.45;3.97;;;22.90;99.90;;;;;;5016298;28;46238;-57
2023/09/10 08:20:54;;;;;;;5.65;3.75;;;22.90;99.90;;;;;;5023032;28;45068;-57
2023/09/10 08:23:21;;;;;;;5.05;3.38;;;22.90;99.90;;;;;;5022453;28;45234;-56
2023/09/10 08:25:51;;;;;;;6.15;3.85;;;22.90;99.90;;;;;;5022413;28;45172;-57
2023/09/10 08:28:18;;;;;;;5.88;3.70;;;22.90;99.90;;;;;;5021580;28;47082;-57
2023/09/10 08:30:45;;;;;;;5.07;3.70;;;22.90;99.90;;;;;;5020689;28;45052;-56
2023/09/10 08:33:13;;;;;;;8.82;3.90;;;22.90;99.90;;;;;;5019508;28;45261;-57
2023/09/10 08:35:45;;;;;;;4.82;3.65;;;22.90;99.90;;;;;;5021911;28;45049;-57
2023/09/10 08:38:12;;;;;;;10.27;5.40;;;22.90;99.90;;;;;;5017479;28;45174;-56
2023/09/10 08:40:44;;;;;;;4.47;3.38;;;22.90;99.90;;;;;;5018992;28;45417;-56
2023/09/10 08:43:15;;;;;;;7.18;4.13;;;22.90;99.90;;;;;;5022101;28;45289;-56
2023/09/10 08:45:43;;;;;;;6.07;3.90;;;22.80;99.90;;;;;;5023577;28;45386;-56
2023/09/10 08:48:11;;;;;;;4.60;3.75;;;22.90;99.90;;;;;;5022224;28;45208;-56
2023/09/10 08:50:39;;;;;;;4.90;3.75;;;22.90;99.90;;;;;;5021277;28;45282;-56
2023/09/10 08:53:07;;;;;;;4.78;3.67;;;22.90;99.90;;;;;;5025139;28;45128;-56
2023/09/10 08:55:35;;;;;;;5.88;4.10;;;22.90;99.90;;;;;;5017464;28;45152;-57
2023/09/10 08:58:04;;;;;;;9.02;4.72;;;22.90;99.90;;;;;;5020566;28;46615;-57
2023/09/10 09:00:32;;;;;;;9.38;4.53;;;22.90;99.90;;;;;;5025737;28;45144;-56
2023/09/10 09:02:59;;;;;;;4.53;3.55;;;22.90;99.90;;;;;;5018919;28;45191;-56
2023/09/10 09:05:30;;;;;;;8.98;5.78;;;22.90;99.90;;;;;;5023631;28;45263;-56
2023/09/10 09:08:06;;;;;;;11.40;5.95;;;22.90;99.90;;;;;;5015201;28;46486;-56
2023/09/10 09:10:33;;;;;;;5.00;3.95;;;23.00;99.90;;;;;;5024687;28;45141;-56
2023/09/10 09:13:05;;;;;;;5.85;3.70;;;22.90;99.90;;;;;;5020173;28;44799;-56
2023/09/10 09:15:33;;;;;;;12.60;4.38;;;22.90;99.90;;;;;;5023612;28;45182;-57
2023/09/10 09:18:01;;;;;;;15.57;6.25;;;22.90;99.90;;;;;;5024962;28;45549;-56
2023/09/10 09:20:31;;;;;;;9.27;5.15;;;23.00;99.90;;;;;;5023520;28;45203;-56
2023/09/10 09:23:16;;;;;;;6.07;3.97;;;22.90;99.90;;;;;;5016050;28;45112;-56
2023/09/10 09:25:43;;;;;;;10.55;4.93;;;22.90;99.90;;;;;;5024789;28;45132;-57
2023/09/10 09:28:12;;;;;;;6.80;4.50;;;22.90;99.90;;;;;;5017086;28;45168;-56
2023/09/10 09:30:39;;;;;;;11.38;4.30;;;22.90;99.90;;;;;;5023232;28;45202;-57
2023/09/10 09:33:06;;;;;;;7.30;3.30;;;23.00;99.90;;;;;;5022881;28;45179;-56
2023/09/10 09:35:33;;;;;;;12.15;5.28;;;23.00;99.90;;;;;;5015229;28;45112;-56
2023/09/10 09:38:06;;;;;;;9.23;5.25;;;23.00;99.90;;;;;;5017471;28;45023;-56
2023/09/10 09:40:35;;;;;;;6.90;3.60;;;23.00;99.90;;;;;;5023900;28;44575;-56
2023/09/10 09:43:02;;;;;;;20.63;5.95;;;23.00;99.90;;;;;;5021450;28;45218;-57
2023/09/10 09:45:30;;;;;;;5.95;3.63;;;23.00;99.90;;;;;;5020508;28;45189;-56
2023/09/10 09:47:57;;;;;;;9.55;5.40;;;23.00;99.90;;;;;;5024003;28;46236;-56
2023/09/10 09:50:26;;;;;;;9.63;4.10;;;23.00;99.90;;;;;;5025166;28;45622;-56
2023/09/10 09:52:54;;;;;;;10.68;3.80;;;23.00;99.90;;;;;;5024393;28;45176;-56
2023/09/10 09:55:22;;;;;;;8.98;4.82;;;23.00;99.90;;;;;;5014807;28;45506;-56
2023/09/10 09:57:49;;;;;;;14.77;5.47;;;23.00;99.90;;;;;;5017090;28;45211;-56
2023/09/10 10:00:17;;;;;;;6.32;4.60;;;23.00;99.90;;;;;;5014624;28;45321;-57
2023/09/10 10:02:45;;;;;;;4.30;3.28;;;23.00;99.90;;;;;;5019462;28;45187;-56
2023/09/10 10:05:13;;;;;;;15.07;4.70;;;23.00;99.90;;;;;;5022606;28;45291;-56
2023/09/10 10:07:41;;;;;;;14.75;5.25;;;23.00;99.90;;;;;;5021162;28;46242;-56
2023/09/10 10:10:09;;;;;;;4.35;3.17;;;23.10;99.90;;;;;;5024150;28;45309;-56
2023/09/10 10:12:38;;;;;;;4.68;3.47;;;23.10;99.90;;;;;;5020771;28;45151;-56
2023/09/10 10:15:08;;;;;;;5.82;3.47;;;23.00;99.90;;;;;;5022051;28;45149;-56
2023/09/10 10:17:35;;;;;;;7.03;3.80;;;23.00;99.90;;;;;;5022776;28;46366;-56
2023/09/10 10:20:05;;;;;;;8.95;4.25;;;23.00;99.90;;;;;;5011808;28;45137;-56
2023/09/10 10:22:34;;;;;;;12.40;4.90;;;23.00;99.90;;;;;;5013169;28;45168;-56
2023/09/10 10:25:04;;;;;;;6.88;3.92;;;23.10;99.90;;;;;;5024053;28;45328;-56
2023/09/10 10:27:33;;;;;;;11.98;4.68;;;23.10;99.90;;;;;;5020971;28;45261;-56
2023/09/10 10:30:02;;;;;;;12.07;4.75;;;23.00;99.90;;;;;;5022335;28;45202;-56
2023/09/10 10:32:34;;;;;;;6.45;3.65;;;23.00;99.90;;;;;;5017265;28;45105;-56
2023/09/10 10:35:04;;;;;;;3.67;3.25;;;23.00;99.90;;;;;;5016387;28;45037;-56
2023/09/10 10:37:36;;;;;;;8.15;4.35;;;23.00;99.90;;;;;;5021771;28;46473;-56
2023/09/10 10:40:09;;;;;;;5.38;3.50;;;23.10;99.90;;;;;;5024651;28;45113;-56
2023/09/10 10:42:41;;;;;;;9.57;4.30;;;23.10;99.90;;;;;;5020592;28;44667;-56
2023/09/10 10:45:15;;;;;;;5.22;3.53;;;23.10;99.90;;;;;;5019056;28;45274;-56
2023/09/10 10:47:44;;;;;;;6.80;3.20;;;23.10;99.90;;;;;;5023344;28;47277;-56
2023/09/10 10:50:11;;;;;;;5.25;3.55;;;23.10;99.90;;;;;;5022008;28;44978;-56
2023/09/10 10:52:45;;;;;;;8.02;3.63;;;23.10;99.90;;;;;;5023266;28;44640;-56
2023/09/10 10:55:13;;;;;;;3.80;3.30;;;23.10;99.90;;;;;;5024090;28;45200;-56
2023/09/10 10:57:40;;;;;;;8.05;3.30;;;23.00;99.90;;;;;;5011955;28;45167;-57
2023/09/10 11:00:10;;;;;;;6.30;3.60;;;23.10;99.90;;;;;;5022618;28;45187;-56
2023/09/10 11:02:37;;;;;;;9.40;3.00;;;23.00;99.90;;;;;;5021869;28;45306;-56
2023/09/10 11:05:06;;;;;;;4.18;3.13;;;23.10;99.90;;;;;;5019564;28;45112;-57
2023/09/10 11:07:34;;;;;;;6.25;3.40;;;23.10;99.90;;;;;;5022943;28;45284;-57
2023/09/10 11:10:16;;;;;;;4.32;2.90;;;23.10;99.90;;;;;;5021220;28;45137;-56
2023/09/10 11:13:04;;;;;;;5.40;3.92;;;23.10;99.90;;;;;;5018000;28;45145;-57
2023/09/10 11:15:32;;;;;;;6.70;3.40;;;23.00;99.90;;;;;;5017831;28;45208;-57
2023/09/10 11:18:41;;;;;;;4.53;3.00;;;23.00;99.90;;;;;;5018341;28;45179;-57
2023/09/10 11:21:09;;;;;;;9.57;3.47;;;23.00;99.90;;;;;;5020125;28;45186;-56
2023/09/10 11:23:38;;;;;;;4.57;3.08;;;23.00;99.90;;;;;;5020912;28;45069;-56
2023/09/10 11:26:29;;;;;;;3.10;2.65;;;23.10;99.90;;;;;;5019557;28;45128;-56
2023/09/10 11:28:58;;;;;;;5.22;3.05;;;23.00;99.90;;;;;;5023421;28;45495;-56
2023/09/10 11:31:38;;;;;;;11.80;3.55;;;23.00;99.90;;;;;;5022560;28;45052;-56
2023/09/10 11:34:37;;;;;;;6.93;3.30;;;23.10;99.90;;;;;;5020185;28;45240;-56
2023/09/10 11:37:06;;;;;;;3.60;2.95;;;23.00;99.90;;;;;;5022361;28;45236;-56
2023/09/10 11:39:34;;;;;;;5.10;2.88;;;23.00;99.90;;;;;;5019325;28;45214;-56
2023/09/10 11:42:03;;;;;;;3.58;2.80;;;23.10;99.90;;;;;;5021381;28;45206;-56
2023/09/10 11:44:30;;;;;;;11.48;4.03;;;23.00;99.90;;;;;;5022226;28;45089;-56
2023/09/10 11:46:58;;;;;;;5.38;3.00;;;23.10;99.90;;;;;;5018317;28;45314;-56
2023/09/10 11:49:25;;;;;;;4.82;2.58;;;23.00;99.90;;;;;;5021045;28;45103;-56
2023/09/10 11:51:56;;;;;;;4.00;2.90;;;23.00;99.90;;;;;;5015478;28;45093;-56
2023/09/10 11:54:23;;;;;;;6.70;4.13;;;23.00;99.90;;;;;;5018288;28;45179;-56
2023/09/10 11:56:51;;;;;;;8.68;3.70;;;23.10;99.90;;;;;;5014559;28;45465;-56
2023/09/10 11:59:20;;;;;;;2.72;2.50;;;23.10;99.90;;;;;;5015265;28;47017;-56
2023/09/10 12:01:46;;;;;;;4.03;3.08;;;23.10;99.90;;;;;;5018832;28;45256;-57
2023/09/10 12:04:16;;;;;;;4.90;2.78;;;23.10;99.90;;;;;;5018844;28;44744;-57
2023/09/10 12:06:44;;;;;;;4.05;2.95;;;23.10;99.90;;;;;;5022746;28;44716;-57
2023/09/10 12:09:13;;;;;;;3.33;2.50;;;23.00;99.90;;;;;;5021486;28;48123;-56
2023/09/10 12:11:41;;;;;;;6.05;3.03;;;23.00;99.90;;;;;;5016938;28;45090;-56
2023/09/10 12:14:08;;;;;;;5.00;2.70;;;23.00;99.90;;;;;;5021500;28;45235;-56
2023/09/10 12:16:35;;;;;;;3.60;2.75;;;23.00;99.90;;;;;;5014498;28;45336;-56
2023/09/10 12:19:02;;;;;;;3.08;2.58;;;23.10;99.90;;;;;;5024369;28;48665;-56
2023/09/10 12:21:31;;;;;;;8.18;3.17;;;23.00;99.90;;;;;;5025379;28;45727;-56
2023/09/10 12:23:57;;;;;;;7.10;2.80;;;23.10;99.90;;;;;;5025199;28;45147;-56
2023/09/10 12:26:25;;;;;;;3.70;2.80;;;23.10;99.90;;;;;;5022259;28;45231;-56
2023/09/10 12:28:52;;;;;;;7.85;3.33;;;23.10;99.90;;;;;;5023020;28;45319;-56
2023/09/10 12:31:20;;;;;;;4.20;3.03;;;23.00;99.90;;;;;;5026380;28;45254;-56
2023/09/10 12:33:46;;;;;;;4.43;2.70;;;23.00;99.90;;;;;;5023062;28;45101;-56
2023/09/10 12:36:15;;;;;;;2.60;2.40;;;23.10;99.90;;;;;;5021834;28;44706;-56
2023/09/10 12:38:43;;;;;;;3.15;2.70;;;23.10;99.90;;;;;;5026644;28;47000;-56
2023/09/10 12:41:10;;;;;;;3.63;2.83;;;23.00;99.90;;;;;;5024697;28;45123;-56
2023/09/10 12:43:37;;;;;;;5.20;2.70;;;23.00;99.90;;;;;;5022449;28;45048;-56
2023/09/10 12:46:04;;;;;;;3.13;2.70;;;23.00;99.90;;;;;;5015313;28;45088;-56
2023/09/10 12:48:30;;;;;;;4.35;3.08;;;23.00;99.90;;;;;;5021693;28;47945;-57